createdAt,value
2023-03-04T00:00:06.101Z,3.80
2023-03-04T00:02:33.015Z,3.80
2023-03-04T00:05:00.752Z,3.80
2023-03-04T00:07:27.857Z,3.90
2023-03-04T00:09:54.854Z,3.80
2023-03-04T00:12:22.558Z,3.80
2023-03-04T00:14:51.408Z,3.80
2023-03-04T00:17:18.669Z,3.70
2023-03-04T00:19:46.082Z,3.70
2023-03-04T00:22:13.063Z,3.60
2023-03-04T00:24:40.519Z,3.50
2023-03-04T00:27:07.670Z,3.30
2023-03-04T00:29:35.162Z,3.40
2023-03-04T00:32:03.959Z,3.40
2023-03-04T00:34:32.988Z,3.50
2023-03-04T00:37:01.534Z,3.30
2023-03-04T00:39:29.272Z,3.20
2023-03-04T00:41:56.277Z,3.20
2023-03-04T00:44:23.314Z,3.30
2023-03-04T00:46:50.312Z,3.40
2023-03-04T00:49:18.761Z,3.50
2023-03-04T00:54:30.477Z,3.20
2023-03-04T00:56:58.006Z,3.10
2023-03-04T00:59:25.189Z,3.30
2023-03-04T01:01:52.109Z,3.40
2023-03-04T01:04:20.888Z,3.40
2023-03-04T01:06:47.909Z,3.50
2023-03-04T01:09:15.415Z,3.50
2023-03-04T01:11:42.941Z,3.60
2023-03-04T01:14:09.953Z,3.70
2023-03-04T01:16:37.578Z,3.70
2023-03-04T01:19:04.652Z,3.70
2023-03-04T01:21:33.410Z,3.70
2023-03-04T01:24:00.383Z,3.70
2023-03-04T01:26:27.326Z,3.70
2023-03-04T01:28:54.847Z,3.70
2023-03-04T01:31:22.361Z,3.70
2023-03-04T01:33:49.823Z,3.70
2023-03-04T01:36:16.777Z,3.70
2023-03-04T01:38:45.534Z,3.70
2023-03-04T01:41:13.752Z,3.70
2023-03-04T01:43:41.409Z,3.80
2023-03-04T01:46:11.072Z,3.70
2023-03-04T01:48:39.049Z,3.60
2023-03-04T01:51:12.968Z,3.60
2023-03-04T01:53:40.448Z,3.50
2023-03-04T01:56:19.590Z,3.40
2023-03-04T01:59:10.478Z,3.30
2023-03-04T02:01:38.908Z,3.40
2023-03-04T02:04:07.910Z,3.50
2023-03-04T02:06:36.885Z,3.30
2023-03-04T02:09:05.345Z,3.30
2023-03-04T02:11:35.220Z,3.50
2023-03-04T02:14:02.239Z,3.60
2023-03-04T02:16:30.088Z,3.50
2023-03-04T02:18:57.161Z,3.50
2023-03-04T02:21:27.000Z,3.60
2023-03-04T02:24:05.781Z,3.50
2023-03-04T02:26:35.701Z,3.40
2023-03-04T02:29:04.242Z,3.40
2023-03-04T02:31:34.954Z,3.50
2023-03-04T02:34:05.004Z,3.50
2023-03-04T02:36:33.514Z,3.40
2023-03-04T02:39:05.486Z,3.40
2023-03-04T02:41:34.522Z,3.50
2023-03-04T02:44:01.496Z,3.50
2023-03-04T02:46:28.572Z,3.50
2023-03-04T02:48:56.043Z,3.50
2023-03-04T02:51:22.941Z,3.50
2023-03-04T02:53:49.989Z,3.50
2023-03-04T02:56:17.429Z,3.40
2023-03-04T02:58:45.759Z,3.40
2023-03-04T03:01:13.288Z,3.40
2023-03-04T03:03:40.172Z,3.40
2023-03-04T03:06:08.084Z,3.40
2023-03-04T03:08:35.000Z,3.50
2023-03-04T03:11:02.683Z,3.50
2023-03-04T03:13:29.632Z,3.50
2023-03-04T03:15:57.950Z,3.50
2023-03-04T03:18:25.578Z,3.50
2023-03-04T03:20:52.636Z,3.50
2023-03-04T03:23:21.441Z,3.40
2023-03-04T03:25:48.298Z,3.50
2023-03-04T03:28:15.764Z,3.50
2023-03-04T03:30:42.725Z,3.40
2023-03-04T03:33:11.522Z,3.30
2023-03-04T03:35:38.569Z,3.40
2023-03-04T03:38:06.174Z,3.60
2023-03-04T03:40:33.137Z,3.80
2023-03-04T03:43:00.689Z,3.80
2023-03-04T03:45:28.423Z,3.80
2023-03-04T03:47:55.563Z,3.80
2023-03-04T03:50:24.384Z,3.80
2023-03-04T03:52:51.782Z,3.90
2023-03-04T03:55:18.713Z,3.90
2023-03-04T03:57:46.262Z,4.10
2023-03-04T04:00:14.991Z,4.20
2023-03-04T04:02:42.789Z,4.10
2023-03-04T04:05:10.690Z,4.20
2023-03-04T04:07:40.016Z,4.20
2023-03-04T04:10:08.689Z,4.40
2023-03-04T04:12:35.624Z,4.50
2023-03-04T04:15:03.112Z,4.50
2023-03-04T04:17:30.010Z,4.40
2023-03-04T04:19:57.521Z,4.40
2023-03-04T04:22:25.088Z,4.40
2023-03-04T04:24:53.394Z,4.50
2023-03-04T04:27:20.802Z,4.50
2023-03-04T04:29:47.726Z,4.50
2023-03-04T04:32:14.689Z,4.50
2023-03-04T04:34:41.724Z,4.50
2023-03-04T04:37:08.781Z,4.60
2023-03-04T04:39:35.972Z,4.60
2023-03-04T04:42:05.129Z,4.60
2023-03-04T04:44:32.209Z,4.50
2023-03-04T04:46:59.215Z,4.60
2023-03-04T04:49:26.140Z,4.60
2023-03-04T04:51:53.269Z,4.70
2023-03-04T04:54:20.182Z,4.70
2023-03-04T04:56:47.706Z,4.70
2023-03-04T04:59:16.052Z,4.70
2023-03-04T05:01:43.611Z,4.70
2023-03-04T05:04:11.154Z,4.70
2023-03-04T05:06:38.456Z,4.80
2023-03-04T05:09:06.688Z,4.80
2023-03-04T05:11:34.198Z,4.70
2023-03-04T05:14:01.698Z,4.70
2023-03-04T05:16:30.002Z,4.80
2023-03-04T05:18:57.615Z,4.80
2023-03-04T05:21:24.725Z,4.70
2023-03-04T05:23:52.629Z,4.60
2023-03-04T05:26:19.835Z,4.60
2023-03-04T05:28:47.360Z,4.70
2023-03-04T05:31:15.451Z,4.70
2023-03-04T05:33:43.919Z,4.80
2023-03-04T05:36:10.927Z,4.80
2023-03-04T05:38:38.472Z,4.80
2023-03-04T05:41:07.337Z,4.80
2023-03-04T05:43:36.469Z,4.80
2023-03-04T05:46:04.432Z,4.80
2023-03-04T05:48:31.646Z,4.80
2023-03-04T05:51:01.527Z,4.80
2023-03-04T05:56:16.274Z,4.70
2023-03-04T05:58:44.433Z,4.70
2023-03-04T06:01:11.620Z,4.80
2023-03-04T06:03:39.188Z,4.90
2023-03-04T06:06:07.792Z,4.90
2023-03-04T06:08:35.284Z,4.90
2023-03-04T06:11:02.787Z,4.90
2023-03-04T06:13:30.241Z,4.90
2023-03-04T06:15:58.950Z,4.90
2023-03-04T06:18:28.061Z,4.90
2023-03-04T06:20:57.987Z,4.90
2023-03-04T06:26:15.311Z,4.80
2023-03-04T06:28:42.538Z,4.80
2023-03-04T06:31:09.735Z,4.90
2023-03-04T06:33:37.149Z,4.90
2023-03-04T06:36:04.639Z,4.90
2023-03-04T06:38:33.966Z,4.90
2023-03-04T06:41:08.014Z,4.90
2023-03-04T06:43:36.089Z,4.80
2023-03-04T06:46:03.548Z,4.90
2023-03-04T06:48:30.985Z,4.90
2023-03-04T06:50:58.023Z,4.80
2023-03-04T06:53:25.756Z,5.00
2023-03-04T06:55:54.309Z,5.00
2023-03-04T06:58:21.298Z,5.10
2023-03-04T07:00:48.227Z,5.00
2023-03-04T07:03:15.859Z,5.00
2023-03-04T07:05:43.150Z,4.90
2023-03-04T07:08:10.304Z,4.90
2023-03-04T07:10:37.246Z,5.00
2023-03-04T07:13:05.538Z,5.00
2023-03-04T07:15:32.561Z,5.10
2023-03-04T07:17:59.583Z,5.00
2023-03-04T07:20:26.781Z,5.00
2023-03-04T07:22:54.195Z,5.10
2023-03-04T07:25:21.207Z,5.10
2023-03-04T07:27:48.728Z,5.10
2023-03-04T07:30:18.475Z,5.20
2023-03-04T07:32:45.982Z,5.30
2023-03-04T07:35:13.007Z,5.40
2023-03-04T07:37:40.595Z,5.40
2023-03-04T07:40:10.129Z,5.40
2023-03-04T07:42:38.424Z,5.40
2023-03-04T07:45:08.031Z,5.40
2023-03-04T07:47:36.903Z,5.30
2023-03-04T07:50:04.662Z,5.30
2023-03-04T07:52:31.585Z,5.40
2023-03-04T07:54:58.687Z,5.50
2023-03-04T07:57:25.839Z,5.40
2023-03-04T07:59:53.300Z,5.30
2023-03-04T08:02:20.629Z,5.40
2023-03-04T08:04:48.973Z,5.40
2023-03-04T08:07:16.820Z,5.50
2023-03-04T08:09:43.954Z,5.40
2023-03-04T08:12:11.011Z,5.50
2023-03-04T08:14:38.038Z,5.60
2023-03-04T08:17:05.004Z,5.60
2023-03-04T08:19:31.923Z,5.50
2023-03-04T08:22:00.216Z,5.50
2023-03-04T08:24:27.520Z,5.60
2023-03-04T08:26:57.469Z,5.60
2023-03-04T08:29:26.037Z,5.60
2023-03-04T08:31:55.393Z,5.50
2023-03-04T08:34:25.350Z,5.50
2023-03-04T08:36:52.312Z,5.60
2023-03-04T08:39:20.834Z,5.60
2023-03-04T08:41:49.677Z,5.70
2023-03-04T08:44:16.942Z,5.70
2023-03-04T08:46:44.308Z,5.80
2023-03-04T08:49:12.913Z,5.70
2023-03-04T08:51:39.943Z,5.70
2023-03-04T08:54:07.725Z,5.80
2023-03-04T08:56:36.334Z,5.80
2023-03-04T08:59:04.313Z,5.80
2023-03-04T09:01:31.337Z,5.80
2023-03-04T09:03:58.914Z,5.80
2023-03-04T09:06:25.957Z,5.70
2023-03-04T09:08:52.934Z,5.70
2023-03-04T09:11:20.058Z,5.80
2023-03-04T09:13:48.461Z,5.80
2023-03-04T09:16:16.548Z,5.80
2023-03-04T09:18:44.480Z,5.80
2023-03-04T09:21:11.873Z,5.90
2023-03-04T09:23:39.501Z,5.80
2023-03-04T09:26:19.767Z,5.90
2023-03-04T09:28:50.675Z,5.90
2023-03-04T09:31:18.348Z,6.00
2023-03-04T09:33:45.668Z,6.00
2023-03-04T09:36:15.106Z,6.10
2023-03-04T09:38:43.559Z,6.10
2023-03-04T09:41:16.144Z,6.10
2023-03-04T09:43:45.437Z,6.10
2023-03-04T09:46:19.400Z,6.00
2023-03-04T09:48:52.047Z,6.10
2023-03-04T09:51:23.483Z,6.10
2023-03-04T09:54:06.497Z,6.10
2023-03-04T09:56:37.978Z,6.20
2023-03-04T09:59:16.600Z,6.20
2023-03-04T10:01:50.387Z,6.10
2023-03-04T10:04:29.877Z,6.10
2023-03-04T10:06:58.134Z,6.10
2023-03-04T10:09:29.746Z,6.20
2023-03-04T10:12:04.211Z,6.20
2023-03-04T10:14:37.805Z,6.20
2023-03-04T10:17:14.528Z,6.30
2023-03-04T10:19:55.857Z,6.30
2023-03-04T10:22:33.602Z,6.30
2023-03-04T10:25:16.049Z,6.30
2023-03-04T10:27:44.313Z,6.40
2023-03-04T10:30:30.832Z,6.30
2023-03-04T10:32:59.895Z,6.40
2023-03-04T10:35:35.142Z,6.50
2023-03-04T10:38:03.654Z,6.50
2023-03-04T10:40:39.295Z,6.40
2023-03-04T10:43:08.287Z,6.40
2023-03-04T10:45:40.015Z,6.50
2023-03-04T10:48:20.588Z,6.40
2023-03-04T10:50:47.866Z,6.40
2023-03-04T10:53:33.384Z,6.50
2023-03-04T10:56:01.255Z,6.50
2023-03-04T10:58:28.411Z,6.60
2023-03-04T11:01:05.151Z,6.60
2023-03-04T11:03:35.934Z,6.60
2023-03-04T11:06:22.834Z,6.70
2023-03-04T11:08:58.658Z,6.70
2023-03-04T11:11:34.935Z,6.70
2023-03-04T11:14:09.430Z,6.70
2023-03-04T11:16:37.080Z,6.70
2023-03-04T11:19:14.576Z,6.70
2023-03-04T11:21:42.083Z,6.70
2023-03-04T11:24:28.255Z,6.70
2023-03-04T11:27:05.727Z,6.60
2023-03-04T11:29:39.374Z,6.60
2023-03-04T11:32:12.223Z,6.60
2023-03-04T11:34:47.502Z,6.60
2023-03-04T11:37:22.993Z,6.70
2023-03-04T11:39:53.810Z,6.60
2023-03-04T11:42:31.954Z,6.70
2023-03-04T11:44:59.600Z,6.60
2023-03-04T11:47:44.449Z,6.60
2023-03-04T11:50:46.009Z,6.60
2023-03-04T11:53:37.139Z,6.70
2023-03-04T11:56:27.569Z,6.70
2023-03-04T11:59:40.676Z,6.70
2023-03-04T12:02:19.539Z,6.80
2023-03-04T12:05:20.831Z,7.00
2023-03-04T12:08:12.635Z,7.10
2023-03-04T12:10:47.435Z,7.10
2023-03-04T12:13:50.766Z,7.20
2023-03-04T12:16:34.727Z,7.20
2023-03-04T12:19:19.278Z,7.10
2023-03-04T12:22:26.022Z,7.10
2023-03-04T12:25:23.321Z,7.10
2023-03-04T12:28:01.967Z,7.10
2023-03-04T12:30:47.968Z,7.10
2023-03-04T12:33:26.433Z,7.10
2023-03-04T12:36:04.373Z,7.10
2023-03-04T12:38:57.904Z,7.20
2023-03-04T12:41:38.147Z,7.30
2023-03-04T12:44:19.445Z,7.40
2023-03-04T12:47:22.245Z,7.50
2023-03-04T12:50:03.632Z,7.50
2023-03-04T12:52:45.601Z,7.60
2023-03-04T12:55:16.612Z,7.60
2023-03-04T12:57:46.610Z,7.60
2023-03-04T13:00:30.693Z,7.70
2023-03-04T13:03:10.564Z,7.80
2023-03-04T13:06:16.934Z,7.80
2023-03-04T13:08:58.935Z,7.80
2023-03-04T13:11:52.590Z,7.90
2023-03-04T13:14:31.113Z,7.90
2023-03-04T13:17:02.243Z,7.90
2023-03-04T13:19:56.306Z,8.00
2023-03-04T13:22:36.254Z,7.90
2023-03-04T13:25:45.217Z,7.90
2023-03-04T13:28:29.830Z,7.90
2023-03-04T13:31:16.501Z,7.90
2023-03-04T13:34:03.235Z,7.90
2023-03-04T13:36:56.117Z,7.90
2023-03-04T13:39:36.213Z,7.90
2023-03-04T13:42:49.095Z,7.90
2023-03-04T13:45:35.020Z,7.90
2023-03-04T13:48:08.705Z,7.90
2023-03-04T13:50:46.158Z,7.90
2023-03-04T13:53:49.876Z,7.90
2023-03-04T13:56:35.876Z,7.90
2023-03-04T13:59:28.402Z,7.90
2023-03-04T14:02:02.674Z,8.00
2023-03-04T14:04:35.548Z,7.90
2023-03-04T14:07:17.639Z,7.90
2023-03-04T14:09:55.936Z,8.00
2023-03-04T14:12:23.649Z,7.90
2023-03-04T14:14:54.806Z,7.90
2023-03-04T14:17:25.889Z,7.90
2023-03-04T14:19:55.216Z,8.00
2023-03-04T14:22:26.535Z,7.90
2023-03-04T14:24:59.804Z,7.90
2023-03-04T14:27:26.919Z,8.00
2023-03-04T14:29:59.205Z,8.00
2023-03-04T14:32:28.442Z,8.00
2023-03-04T14:35:02.587Z,8.00
2023-03-04T14:37:41.834Z,8.00
2023-03-04T14:40:20.852Z,8.10
2023-03-04T14:42:49.401Z,8.10
2023-03-04T14:45:17.720Z,8.20
2023-03-04T14:47:47.961Z,8.10
2023-03-04T14:50:19.384Z,8.10
2023-03-04T14:52:52.116Z,8.00
2023-03-04T14:55:24.338Z,7.90
2023-03-04T14:57:58.809Z,7.90
2023-03-04T15:00:31.461Z,7.90
2023-03-04T15:03:00.769Z,7.90
2023-03-04T15:05:32.035Z,8.10
2023-03-04T15:08:02.806Z,8.10
2023-03-04T15:10:33.795Z,8.10
2023-03-04T15:13:04.339Z,8.10
2023-03-04T15:15:42.371Z,8.10
2023-03-04T15:18:22.286Z,8.00
2023-03-04T15:21:02.639Z,8.00
2023-03-04T15:26:16.580Z,8.00
2023-03-04T15:28:44.383Z,8.00
2023-03-04T15:31:18.423Z,8.00
2023-03-04T15:33:45.975Z,8.00
2023-03-04T15:36:17.586Z,8.00
2023-03-04T15:38:47.761Z,8.00
2023-03-04T15:41:19.823Z,8.00
2023-03-04T15:43:46.885Z,8.00
2023-03-04T15:46:16.784Z,8.00
2023-03-04T15:48:44.330Z,7.90
2023-03-04T15:51:17.730Z,8.00
2023-03-04T15:53:48.372Z,7.90
2023-03-04T15:56:18.827Z,7.90
2023-03-04T15:58:49.022Z,7.90
2023-03-04T16:01:17.524Z,8.00
2023-03-04T16:03:45.020Z,8.00
2023-03-04T16:06:18.642Z,8.00
2023-03-04T16:08:47.869Z,7.90
2023-03-04T16:11:17.276Z,8.00
2023-03-04T16:13:44.733Z,8.00
2023-03-04T16:16:13.749Z,8.00
2023-03-04T16:18:42.199Z,7.90
2023-03-04T16:21:16.374Z,7.90
2023-03-04T16:23:45.936Z,7.90
2023-03-04T16:26:17.856Z,7.90
2023-03-04T16:28:45.161Z,7.80
2023-03-04T16:31:13.708Z,7.80
2023-03-04T16:33:41.363Z,7.80
2023-03-04T16:36:17.239Z,7.80
2023-03-04T16:38:44.892Z,7.80
2023-03-04T16:41:14.501Z,7.80
2023-03-04T16:43:42.761Z,7.80
2023-03-04T16:46:12.391Z,7.80
2023-03-04T16:48:40.595Z,7.80
2023-03-04T16:51:15.680Z,7.80
2023-03-04T16:53:47.927Z,7.80
2023-03-04T16:56:17.065Z,7.80
2023-03-04T16:58:45.223Z,7.80
2023-03-04T17:01:17.079Z,7.80
2023-03-04T17:03:44.798Z,7.80
2023-03-04T17:06:12.443Z,7.90
2023-03-04T17:08:42.690Z,7.90
2023-03-04T17:11:13.126Z,7.90
2023-03-04T17:13:40.128Z,8.00
2023-03-04T17:16:07.397Z,8.00
2023-03-04T17:18:34.952Z,8.00
2023-03-04T17:21:03.612Z,8.00
2023-03-04T17:23:31.253Z,8.00
2023-03-04T17:25:59.855Z,7.90
2023-03-04T17:28:27.831Z,7.90
2023-03-04T17:30:55.524Z,8.00
2023-03-04T17:33:23.616Z,7.90
2023-03-04T17:35:50.592Z,7.80
2023-03-04T17:38:18.265Z,7.80
2023-03-04T17:40:45.434Z,7.70
2023-03-04T17:43:14.480Z,7.70
2023-03-04T17:45:43.182Z,7.70
2023-03-04T17:48:15.784Z,7.70
2023-03-04T17:50:49.772Z,7.70
2023-03-04T17:53:17.630Z,7.70
2023-03-04T17:55:50.670Z,7.70
2023-03-04T17:58:19.460Z,7.60
2023-03-04T18:00:47.758Z,7.70
2023-03-04T18:03:15.210Z,7.70
2023-03-04T18:05:43.433Z,7.70
2023-03-04T18:08:11.637Z,7.60
2023-03-04T18:10:38.830Z,7.60
2023-03-04T18:13:06.367Z,7.70
2023-03-04T18:15:34.793Z,7.70
2023-03-04T18:18:02.416Z,7.70
2023-03-04T18:20:29.393Z,7.70
2023-03-04T18:22:58.553Z,7.70
2023-03-04T18:25:25.871Z,7.70
2023-03-04T18:27:53.197Z,7.70
2023-03-04T18:30:27.517Z,7.70
2023-03-04T18:32:59.840Z,7.70
2023-03-04T18:35:27.039Z,7.60
2023-03-04T18:37:54.223Z,7.60
2023-03-04T18:40:22.044Z,7.60
2023-03-04T18:42:49.111Z,7.60
2023-03-04T18:45:17.839Z,7.60
2023-03-04T18:47:50.384Z,7.60
2023-03-04T18:50:21.796Z,7.60
2023-03-04T18:52:49.413Z,7.60
2023-03-04T18:55:18.883Z,7.60
2023-03-04T18:57:51.098Z,7.60
2023-03-04T19:00:22.650Z,7.60
2023-03-04T19:02:53.993Z,7.60
2023-03-04T19:05:27.605Z,7.50
2023-03-04T19:07:55.498Z,7.60
2023-03-04T19:10:23.606Z,7.50
2023-03-04T19:12:50.677Z,7.60
2023-03-04T19:15:18.761Z,7.60
2023-03-04T19:17:46.620Z,7.70
2023-03-04T19:20:15.201Z,7.70
2023-03-04T19:22:44.550Z,7.70
2023-03-04T19:25:12.405Z,7.70
2023-03-04T19:27:39.471Z,7.70
2023-03-04T19:30:08.830Z,7.60
2023-03-04T19:32:36.312Z,7.60
2023-03-04T19:35:03.466Z,7.40
2023-03-04T19:37:30.512Z,7.40
2023-03-04T19:39:59.290Z,7.40
2023-03-04T19:42:26.233Z,7.50
2023-03-04T19:44:53.790Z,7.40
2023-03-04T19:47:21.244Z,7.30
2023-03-04T19:49:48.338Z,7.10
2023-03-04T19:52:15.765Z,7.10
2023-03-04T19:54:42.678Z,7.10
2023-03-04T19:57:11.432Z,7.20
2023-03-04T19:59:38.383Z,7.30
2023-03-04T20:02:05.907Z,7.30
2023-03-04T20:04:32.917Z,7.20
2023-03-04T20:06:59.971Z,7.10
2023-03-04T20:09:27.478Z,7.10
2023-03-04T20:11:58.882Z,7.20
2023-03-04T20:14:29.028Z,7.10
2023-03-04T20:17:00.705Z,7.00
2023-03-04T20:19:28.000Z,6.90
2023-03-04T20:21:56.447Z,6.90
2023-03-04T20:24:23.768Z,6.90
2023-03-04T20:26:52.032Z,6.90
2023-03-04T20:29:19.173Z,7.10
2023-03-04T20:31:48.263Z,7.10
2023-03-04T20:34:15.979Z,7.10
2023-03-04T20:36:42.983Z,7.10
2023-03-04T20:39:27.652Z,7.10
2023-03-04T20:41:56.879Z,7.10
2023-03-04T20:44:23.890Z,7.20
2023-03-04T20:46:52.398Z,7.20
2023-03-04T20:49:24.439Z,7.20
2023-03-04T20:51:52.807Z,7.20
2023-03-04T20:54:20.936Z,7.30
2023-03-04T20:56:49.769Z,7.20
2023-03-04T20:59:17.387Z,7.20
2023-03-04T21:01:47.777Z,7.30
2023-03-04T21:04:17.420Z,7.40
2023-03-04T21:06:47.257Z,7.40
2023-03-04T21:09:16.687Z,7.30
2023-03-04T21:11:44.043Z,7.20
2023-03-04T21:14:14.857Z,7.20
2023-03-04T21:16:42.613Z,7.30
2023-03-04T21:19:16.872Z,7.30
2023-03-04T21:21:44.251Z,7.20
2023-03-04T21:24:15.962Z,7.10
2023-03-04T21:26:45.180Z,7.10
2023-03-04T21:29:13.822Z,7.00
2023-03-04T21:31:45.093Z,7.00
2023-03-04T21:34:18.182Z,7.10
2023-03-04T21:36:45.473Z,7.20
2023-03-04T21:39:17.142Z,7.30
2023-03-04T21:41:45.121Z,7.40
2023-03-04T21:44:22.651Z,7.40
2023-03-04T21:46:56.298Z,7.40
2023-03-04T21:49:25.197Z,7.50
2023-03-04T21:51:52.464Z,7.50
2023-03-04T21:54:19.440Z,7.40
2023-03-04T21:56:46.537Z,7.40
2023-03-04T21:59:14.977Z,7.40
2023-03-04T22:01:42.151Z,7.40
2023-03-04T22:04:09.594Z,7.30
2023-03-04T22:06:39.356Z,7.30
2023-03-04T22:09:07.444Z,7.40
2023-03-04T22:11:35.092Z,7.30
2023-03-04T22:14:03.431Z,7.30
2023-03-04T22:16:32.759Z,7.40
2023-03-04T22:19:00.897Z,7.40
2023-03-04T22:21:27.882Z,7.40
2023-03-04T22:23:56.711Z,7.40
2023-03-04T22:26:30.450Z,7.40
2023-03-04T22:28:58.180Z,7.40
2023-03-04T22:31:31.855Z,7.40
2023-03-04T22:33:59.772Z,7.30
2023-03-04T22:36:26.985Z,7.30
2023-03-04T22:38:56.082Z,7.30
2023-03-04T22:41:23.820Z,7.30
2023-03-04T22:43:51.753Z,7.30
2023-03-04T22:46:21.771Z,7.30
2023-03-04T22:48:49.048Z,7.30
2023-03-04T22:51:16.144Z,7.30
2023-03-04T22:53:44.076Z,7.30
2023-03-04T22:56:14.440Z,7.30
2023-03-04T22:58:41.995Z,7.30
2023-03-04T23:01:11.688Z,7.30
2023-03-04T23:03:40.877Z,7.20
2023-03-04T23:06:11.888Z,7.20
2023-03-04T23:08:42.954Z,7.20
2023-03-04T23:11:13.678Z,7.20
2023-03-04T23:13:42.349Z,7.20
2023-03-04T23:16:12.754Z,7.20
2023-03-04T23:18:42.284Z,7.20
2023-03-04T23:21:12.483Z,7.20
2023-03-04T23:23:40.391Z,7.20
2023-03-04T23:26:16.767Z,7.20
2023-03-04T23:28:44.272Z,7.20
2023-03-04T23:31:15.122Z,7.20
2023-03-04T23:33:42.976Z,7.20
2023-03-04T23:36:14.986Z,7.20
2023-03-04T23:38:43.372Z,7.10
2023-03-04T23:41:12.974Z,7.10
2023-03-04T23:43:41.331Z,7.10
2023-03-04T23:46:14.805Z,7.20
2023-03-04T23:48:46.177Z,7.10
2023-03-04T23:51:15.119Z,7.10
2023-03-04T23:53:42.582Z,7.00
2023-03-04T23:56:11.127Z,7.00
2023-03-04T23:58:38.612Z,7.10
